sensor_id;sensor_type;location;lat;lon;timestamp;temperature;humidity
4103;DHT22;2065;49.790;9.620;2022-08-19T00:00:32;27.00;50.70
4103;DHT22;2065;49.790;9.620;2022-08-19T00:02:59;27.00;50.20
4103;DHT22;2065;49.790;9.620;2022-08-19T00:05:27;26.90;50.20
4103;DHT22;2065;49.790;9.620;2022-08-19T00:07:54;27.00;50.80
4103;DHT22;2065;49.790;9.620;2022-08-19T00:10:21;27.00;50.80
4103;DHT22;2065;49.790;9.620;2022-08-19T00:12:50;27.00;51.30
4103;DHT22;2065;49.790;9.620;2022-08-19T00:15:18;27.00;51.60
4103;DHT22;2065;49.790;9.620;2022-08-19T00:17:46;26.90;51.80
4103;DHT22;2065;49.790;9.620;2022-08-19T00:20:16;26.90;51.80
4103;DHT22;2065;49.790;9.620;2022-08-19T00:22:46;26.90;51.80
4103;DHT22;2065;49.790;9.620;2022-08-19T00:25:13;26.90;51.50
4103;DHT22;2065;49.790;9.620;2022-08-19T00:27:40;26.90;51.90
4103;DHT22;2065;49.790;9.620;2022-08-19T00:30:08;26.90;51.80
4103;DHT22;2065;49.790;9.620;2022-08-19T00:32:37;27.00;51.70
4103;DHT22;2065;49.790;9.620;2022-08-19T00:35:05;27.00;51.40
4103;DHT22;2065;49.790;9.620;2022-08-19T00:37:32;27.00;51.30
4103;DHT22;2065;49.790;9.620;2022-08-19T00:40:04;27.00;51.70
4103;DHT22;2065;49.790;9.620;2022-08-19T00:42:32;27.00;51.60
4103;DHT22;2065;49.790;9.620;2022-08-19T00:44:59;27.10;51.60
4103;DHT22;2065;49.790;9.620;2022-08-19T00:47:26;27.10;51.00
4103;DHT22;2065;49.790;9.620;2022-08-19T00:49:56;27.10;50.50
4103;DHT22;2065;49.790;9.620;2022-08-19T00:52:26;27.10;50.40
4103;DHT22;2065;49.790;9.620;2022-08-19T00:54:54;27.10;50.40
4103;DHT22;2065;49.790;9.620;2022-08-19T00:57:27;27.10;50.10
4103;DHT22;2065;49.790;9.620;2022-08-19T00:59:56;27.10;49.90
4103;DHT22;2065;49.790;9.620;2022-08-19T01:02:25;27.20;49.90
4103;DHT22;2065;49.790;9.620;2022-08-19T01:04:53;27.10;49.90
4103;DHT22;2065;49.790;9.620;2022-08-19T01:07:21;27.10;49.70
4103;DHT22;2065;49.790;9.620;2022-08-19T01:09:48;27.10;49.80
4103;DHT22;2065;49.790;9.620;2022-08-19T01:12:16;27.10;49.80
4103;DHT22;2065;49.790;9.620;2022-08-19T01:14:45;27.10;49.80
4103;DHT22;2065;49.790;9.620;2022-08-19T01:17:14;27.10;50.10
4103;DHT22;2065;49.790;9.620;2022-08-19T01:19:43;27.00;50.00
4103;DHT22;2065;49.790;9.620;2022-08-19T01:22:16;27.00;49.80
4103;DHT22;2065;49.790;9.620;2022-08-19T01:24:46;27.00;50.00
4103;DHT22;2065;49.790;9.620;2022-08-19T01:27:13;26.90;50.00
4103;DHT22;2065;49.790;9.620;2022-08-19T01:29:41;26.90;50.00
4103;DHT22;2065;49.790;9.620;2022-08-19T01:32:09;26.90;50.20
4103;DHT22;2065;49.790;9.620;2022-08-19T01:34:38;26.90;50.50
4103;DHT22;2065;49.790;9.620;2022-08-19T01:37:08;26.80;50.60
4103;DHT22;2065;49.790;9.620;2022-08-19T01:39:37;26.80;50.70
4103;DHT22;2065;49.790;9.620;2022-08-19T01:42:07;26.70;50.70
4103;DHT22;2065;49.790;9.620;2022-08-19T01:44:37;26.60;50.70
4103;DHT22;2065;49.790;9.620;2022-08-19T01:47:04;26.60;50.70
4103;DHT22;2065;49.790;9.620;2022-08-19T01:49:32;26.60;50.70
4103;DHT22;2065;49.790;9.620;2022-08-19T01:52:00;26.50;50.90
4103;DHT22;2065;49.790;9.620;2022-08-19T01:54:27;26.50;51.00
4103;DHT22;2065;49.790;9.620;2022-08-19T01:56:58;26.50;51.00
4103;DHT22;2065;49.790;9.620;2022-08-19T01:59:28;26.40;51.10
4103;DHT22;2065;49.790;9.620;2022-08-19T02:01:56;26.40;51.20
4103;DHT22;2065;49.790;9.620;2022-08-19T02:04:23;26.40;51.20
4103;DHT22;2065;49.790;9.620;2022-08-19T02:06:51;26.40;51.40
4103;DHT22;2065;49.790;9.620;2022-08-19T02:09:18;26.40;51.50
4103;DHT22;2065;49.790;9.620;2022-08-19T02:11:45;26.40;52.40
4103;DHT22;2065;49.790;9.620;2022-08-19T02:14:12;26.50;51.60
4103;DHT22;2065;49.790;9.620;2022-08-19T02:16:40;26.40;51.50
4103;DHT22;2065;49.790;9.620;2022-08-19T02:19:07;26.30;51.80
4103;DHT22;2065;49.790;9.620;2022-08-19T02:21:35;26.30;52.00
4103;DHT22;2065;49.790;9.620;2022-08-19T02:24:03;26.30;52.20
4103;DHT22;2065;49.790;9.620;2022-08-19T02:26:32;26.20;52.00
4103;DHT22;2065;49.790;9.620;2022-08-19T02:28:59;26.30;51.70
4103;DHT22;2065;49.790;9.620;2022-08-19T02:31:26;26.30;51.30
4103;DHT22;2065;49.790;9.620;2022-08-19T02:33:56;26.20;51.40
4103;DHT22;2065;49.790;9.620;2022-08-19T02:36:24;26.30;51.90
4103;DHT22;2065;49.790;9.620;2022-08-19T02:38:52;26.30;51.90
4103;DHT22;2065;49.790;9.620;2022-08-19T02:41:20;26.30;51.80
4103;DHT22;2065;49.790;9.620;2022-08-19T02:43:48;26.30;51.40
4103;DHT22;2065;49.790;9.620;2022-08-19T02:46:18;26.30;51.40
4103;DHT22;2065;49.790;9.620;2022-08-19T02:48:47;26.20;51.50
4103;DHT22;2065;49.790;9.620;2022-08-19T02:51:21;26.20;51.70
4103;DHT22;2065;49.790;9.620;2022-08-19T02:53:49;26.20;51.70
4103;DHT22;2065;49.790;9.620;2022-08-19T02:56:17;26.20;51.50
4103;DHT22;2065;49.790;9.620;2022-08-19T02:58:44;26.10;51.90
4103;DHT22;2065;49.790;9.620;2022-08-19T03:01:19;26.00;52.30
4103;DHT22;2065;49.790;9.620;2022-08-19T03:03:47;26.10;52.40
4103;DHT22;2065;49.790;9.620;2022-08-19T03:06:15;26.00;52.40
4103;DHT22;2065;49.790;9.620;2022-08-19T03:08:46;25.90;52.30
4103;DHT22;2065;49.790;9.620;2022-08-19T03:11:15;25.90;52.20
4103;DHT22;2065;49.790;9.620;2022-08-19T03:13:43;25.90;52.20
4103;DHT22;2065;49.790;9.620;2022-08-19T03:16:11;25.90;52.30
4103;DHT22;2065;49.790;9.620;2022-08-19T03:18:38;25.80;52.40
4103;DHT22;2065;49.790;9.620;2022-08-19T03:21:06;25.80;52.50
4103;DHT22;2065;49.790;9.620;2022-08-19T03:23:33;25.80;52.40
4103;DHT22;2065;49.790;9.620;2022-08-19T03:26:04;25.90;52.50
4103;DHT22;2065;49.790;9.620;2022-08-19T03:28:32;25.90;52.40
4103;DHT22;2065;49.790;9.620;2022-08-19T03:31:01;26.00;52.40
4103;DHT22;2065;49.790;9.620;2022-08-19T03:33:29;26.00;52.50
4103;DHT22;2065;49.790;9.620;2022-08-19T03:36:05;26.00;52.10
4103;DHT22;2065;49.790;9.620;2022-08-19T03:38:34;26.10;52.10
4103;DHT22;2065;49.790;9.620;2022-08-19T03:41:09;26.10;52.00
4103;DHT22;2065;49.790;9.620;2022-08-19T03:43:38;26.10;51.80
4103;DHT22;2065;49.790;9.620;2022-08-19T03:46:08;26.10;52.10
4103;DHT22;2065;49.790;9.620;2022-08-19T03:48:36;25.90;52.40
4103;DHT22;2065;49.790;9.620;2022-08-19T03:51:04;25.90;52.40
4103;DHT22;2065;49.790;9.620;2022-08-19T03:53:33;26.00;52.20
4103;DHT22;2065;49.790;9.620;2022-08-19T03:56:01;26.00;52.20
4103;DHT22;2065;49.790;9.620;2022-08-19T03:58:30;26.00;52.30
4103;DHT22;2065;49.790;9.620;2022-08-19T04:00:57;26.00;52.20
4103;DHT22;2065;49.790;9.620;2022-08-19T04:03:25;26.00;52.40
4103;DHT22;2065;49.790;9.620;2022-08-19T04:05:53;26.10;52.10
4103;DHT22;2065;49.790;9.620;2022-08-19T04:08:20;26.10;52.50
4103;DHT22;2065;49.790;9.620;2022-08-19T04:10:48;26.10;52.70
4103;DHT22;2065;49.790;9.620;2022-08-19T04:13:17;26.00;53.00
4103;DHT22;2065;49.790;9.620;2022-08-19T04:15:46;26.00;53.20
4103;DHT22;2065;49.790;9.620;2022-08-19T04:18:13;26.00;53.20
4103;DHT22;2065;49.790;9.620;2022-08-19T04:20:42;26.00;53.20
4103;DHT22;2065;49.790;9.620;2022-08-19T04:23:09;26.00;53.20
4103;DHT22;2065;49.790;9.620;2022-08-19T04:25:38;26.00;53.20
4103;DHT22;2065;49.790;9.620;2022-08-19T04:28:05;26.00;53.20
4103;DHT22;2065;49.790;9.620;2022-08-19T04:30:38;26.00;53.10
4103;DHT22;2065;49.790;9.620;2022-08-19T04:33:07;26.00;53.30
4103;DHT22;2065;49.790;9.620;2022-08-19T04:35:40;26.00;53.60
4103;DHT22;2065;49.790;9.620;2022-08-19T04:38:08;26.00;53.00
4103;DHT22;2065;49.790;9.620;2022-08-19T04:40:40;26.00;53.00
4103;DHT22;2065;49.790;9.620;2022-08-19T04:43:25;26.00;53.10
4103;DHT22;2065;49.790;9.620;2022-08-19T04:45:52;26.00;52.80
4103;DHT22;2065;49.790;9.620;2022-08-19T04:48:21;26.00;53.10
4103;DHT22;2065;49.790;9.620;2022-08-19T04:50:52;26.10;52.50
4103;DHT22;2065;49.790;9.620;2022-08-19T04:53:23;25.90;53.00
4103;DHT22;2065;49.790;9.620;2022-08-19T04:55:50;25.80;53.10
4103;DHT22;2065;49.790;9.620;2022-08-19T04:58:18;25.90;53.20
4103;DHT22;2065;49.790;9.620;2022-08-19T05:00:45;26.00;53.00
4103;DHT22;2065;49.790;9.620;2022-08-19T05:03:12;26.10;52.90
4103;DHT22;2065;49.790;9.620;2022-08-19T05:05:44;26.10;52.70
4103;DHT22;2065;49.790;9.620;2022-08-19T05:08:15;26.10;52.90
4103;DHT22;2065;49.790;9.620;2022-08-19T05:10:46;26.10;52.80
4103;DHT22;2065;49.790;9.620;2022-08-19T05:13:15;26.20;53.20
4103;DHT22;2065;49.790;9.620;2022-08-19T05:15:42;26.10;53.10
4103;DHT22;2065;49.790;9.620;2022-08-19T05:18:10;26.20;53.20
4103;DHT22;2065;49.790;9.620;2022-08-19T05:20:56;26.20;53.70
4103;DHT22;2065;49.790;9.620;2022-08-19T05:23:41;26.30;53.60
4103;DHT22;2065;49.790;9.620;2022-08-19T05:26:07;26.20;53.60
4103;DHT22;2065;49.790;9.620;2022-08-19T05:28:36;26.20;53.50
4103;DHT22;2065;49.790;9.620;2022-08-19T05:31:03;26.10;53.60
4103;DHT22;2065;49.790;9.620;2022-08-19T05:33:30;26.20;53.60
4103;DHT22;2065;49.790;9.620;2022-08-19T05:36:00;26.10;53.60
4103;DHT22;2065;49.790;9.620;2022-08-19T05:38:28;26.10;53.20
4103;DHT22;2065;49.790;9.620;2022-08-19T05:40:55;26.10;53.00
4103;DHT22;2065;49.790;9.620;2022-08-19T05:43:22;26.30;53.20
4103;DHT22;2065;49.790;9.620;2022-08-19T05:45:49;26.40;53.00
4103;DHT22;2065;49.790;9.620;2022-08-19T05:48:17;26.40;52.90
4103;DHT22;2065;49.790;9.620;2022-08-19T05:50:46;26.50;52.80
4103;DHT22;2065;49.790;9.620;2022-08-19T05:53:17;26.50;52.60
4103;DHT22;2065;49.790;9.620;2022-08-19T05:55:44;26.50;52.40
4103;DHT22;2065;49.790;9.620;2022-08-19T05:58:11;26.60;52.50
4103;DHT22;2065;49.790;9.620;2022-08-19T06:00:39;26.60;52.10
4103;DHT22;2065;49.790;9.620;2022-08-19T06:03:06;26.60;51.80
4103;DHT22;2065;49.790;9.620;2022-08-19T06:05:33;26.60;52.30
4103;DHT22;2065;49.790;9.620;2022-08-19T06:08:00;26.70;52.10
4103;DHT22;2065;49.790;9.620;2022-08-19T06:10:29;26.70;51.90
4103;DHT22;2065;49.790;9.620;2022-08-19T06:12:56;26.80;51.70
4103;DHT22;2065;49.790;9.620;2022-08-19T06:15:23;26.80;51.60
4103;DHT22;2065;49.790;9.620;2022-08-19T06:17:51;26.80;51.80
4103;DHT22;2065;49.790;9.620;2022-08-19T06:20:18;26.60;52.40
4103;DHT22;2065;49.790;9.620;2022-08-19T06:22:48;26.40;53.20
4103;DHT22;2065;49.790;9.620;2022-08-19T06:25:17;26.40;53.10
4103;DHT22;2065;49.790;9.620;2022-08-19T06:27:46;26.60;53.00
4103;DHT22;2065;49.790;9.620;2022-08-19T06:30:13;26.80;52.70
4103;DHT22;2065;49.790;9.620;2022-08-19T06:32:41;26.80;52.30
4103;DHT22;2065;49.790;9.620;2022-08-19T06:35:08;26.90;52.50
4103;DHT22;2065;49.790;9.620;2022-08-19T06:37:36;26.80;52.00
4103;DHT22;2065;49.790;9.620;2022-08-19T06:40:04;26.80;51.90
4103;DHT22;2065;49.790;9.620;2022-08-19T06:42:34;26.90;51.70
4103;DHT22;2065;49.790;9.620;2022-08-19T06:45:08;26.90;51.80
4103;DHT22;2065;49.790;9.620;2022-08-19T06:47:36;27.00;51.70
4103;DHT22;2065;49.790;9.620;2022-08-19T06:50:06;26.90;51.60
4103;DHT22;2065;49.790;9.620;2022-08-19T06:52:34;26.90;51.90
4103;DHT22;2065;49.790;9.620;2022-08-19T06:55:03;26.80;52.10
4103;DHT22;2065;49.790;9.620;2022-08-19T06:57:31;26.80;52.30
4103;DHT22;2065;49.790;9.620;2022-08-19T06:59:58;26.80;52.10
4103;DHT22;2065;49.790;9.620;2022-08-19T07:02:27;26.60;52.50
4103;DHT22;2065;49.790;9.620;2022-08-19T07:04:55;26.70;52.70
4103;DHT22;2065;49.790;9.620;2022-08-19T07:07:24;26.80;52.60
4103;DHT22;2065;49.790;9.620;2022-08-19T07:09:52;26.80;52.20
4103;DHT22;2065;49.790;9.620;2022-08-19T07:12:22;26.90;52.10
4103;DHT22;2065;49.790;9.620;2022-08-19T07:14:50;27.00;52.80
4103;DHT22;2065;49.790;9.620;2022-08-19T07:17:23;27.00;52.10
4103;DHT22;2065;49.790;9.620;2022-08-19T07:19:52;27.10;52.30
4103;DHT22;2065;49.790;9.620;2022-08-19T07:22:21;27.00;52.20
4103;DHT22;2065;49.790;9.620;2022-08-19T07:24:49;26.90;52.60
4103;DHT22;2065;49.790;9.620;2022-08-19T07:27:16;26.90;52.60
4103;DHT22;2065;49.790;9.620;2022-08-19T07:29:44;26.90;52.70
4103;DHT22;2065;49.790;9.620;2022-08-19T07:32:11;27.00;52.50
4103;DHT22;2065;49.790;9.620;2022-08-19T07:34:38;27.00;52.50
4103;DHT22;2065;49.790;9.620;2022-08-19T07:37:07;27.00;52.60
4103;DHT22;2065;49.790;9.620;2022-08-19T07:39:35;27.10;52.50
4103;DHT22;2065;49.790;9.620;2022-08-19T07:42:07;27.10;52.60
4103;DHT22;2065;49.790;9.620;2022-08-19T07:44:36;27.00;52.70
4103;DHT22;2065;49.790;9.620;2022-08-19T07:47:04;26.90;53.00
4103;DHT22;2065;49.790;9.620;2022-08-19T07:49:32;26.90;53.10
4103;DHT22;2065;49.790;9.620;2022-08-19T07:52:01;27.10;52.80
4103;DHT22;2065;49.790;9.620;2022-08-19T07:54:33;27.10;52.70
4103;DHT22;2065;49.790;9.620;2022-08-19T07:57:01;27.20;52.80
4103;DHT22;2065;49.790;9.620;2022-08-19T07:59:29;27.30;52.50
4103;DHT22;2065;49.790;9.620;2022-08-19T08:01:57;27.20;52.60
4103;DHT22;2065;49.790;9.620;2022-08-19T08:04:25;27.20;52.80
4103;DHT22;2065;49.790;9.620;2022-08-19T08:07:10;27.20;53.50
4103;DHT22;2065;49.790;9.620;2022-08-19T08:09:57;27.10;53.10
4103;DHT22;2065;49.790;9.620;2022-08-19T08:12:26;27.20;52.60
4103;DHT22;2065;49.790;9.620;2022-08-19T08:14:59;27.30;52.20
4103;DHT22;2065;49.790;9.620;2022-08-19T08:17:29;27.40;52.60
4103;DHT22;2065;49.790;9.620;2022-08-19T08:19:57;27.40;52.30
4103;DHT22;2065;49.790;9.620;2022-08-19T08:22:25;27.50;52.10
4103;DHT22;2065;49.790;9.620;2022-08-19T08:25:15;27.70;51.30
4103;DHT22;2065;49.790;9.620;2022-08-19T08:27:43;27.70;50.90
4103;DHT22;2065;49.790;9.620;2022-08-19T08:30:14;27.70;51.20
4103;DHT22;2065;49.790;9.620;2022-08-19T08:32:42;27.80;50.80
4103;DHT22;2065;49.790;9.620;2022-08-19T08:35:17;27.60;50.30
4103;DHT22;2065;49.790;9.620;2022-08-19T08:37:46;27.50;51.00
4103;DHT22;2065;49.790;9.620;2022-08-19T08:40:22;27.60;51.00
4103;DHT22;2065;49.790;9.620;2022-08-19T08:42:53;27.80;50.60
4103;DHT22;2065;49.790;9.620;2022-08-19T08:45:24;27.80;50.40
4103;DHT22;2065;49.790;9.620;2022-08-19T08:47:54;27.50;50.50
4103;DHT22;2065;49.790;9.620;2022-08-19T08:50:28;27.40;50.60
4103;DHT22;2065;49.790;9.620;2022-08-19T08:52:57;27.40;50.40
4103;DHT22;2065;49.790;9.620;2022-08-19T08:55:28;27.40;50.80
4103;DHT22;2065;49.790;9.620;2022-08-19T08:57:59;27.50;50.50
4103;DHT22;2065;49.790;9.620;2022-08-19T09:00:30;27.60;50.50
4103;DHT22;2065;49.790;9.620;2022-08-19T09:02:59;27.70;49.80
4103;DHT22;2065;49.790;9.620;2022-08-19T09:05:32;27.70;49.80
4103;DHT22;2065;49.790;9.620;2022-08-19T09:08:03;27.70;49.60
4103;DHT22;2065;49.790;9.620;2022-08-19T09:10:38;27.70;49.70
4103;DHT22;2065;49.790;9.620;2022-08-19T09:13:11;27.90;49.70
4103;DHT22;2065;49.790;9.620;2022-08-19T09:15:47;28.10;48.90
4103;DHT22;2065;49.790;9.620;2022-08-19T09:18:15;28.20;48.50
4103;DHT22;2065;49.790;9.620;2022-08-19T09:20:42;28.20;47.80
4103;DHT22;2065;49.790;9.620;2022-08-19T09:23:09;28.30;47.70
4103;DHT22;2065;49.790;9.620;2022-08-19T09:25:38;28.10;47.70
4103;DHT22;2065;49.790;9.620;2022-08-19T09:28:06;28.00;47.80
4103;DHT22;2065;49.790;9.620;2022-08-19T09:30:38;28.00;48.10
4103;DHT22;2065;49.790;9.620;2022-08-19T09:33:06;28.00;47.80
4103;DHT22;2065;49.790;9.620;2022-08-19T09:35:33;28.20;47.70
4103;DHT22;2065;49.790;9.620;2022-08-19T09:38:00;28.40;46.50
4103;DHT22;2065;49.790;9.620;2022-08-19T09:40:28;28.20;46.00
4103;DHT22;2065;49.790;9.620;2022-08-19T09:42:57;28.30;45.70
4103;DHT22;2065;49.790;9.620;2022-08-19T09:45:28;28.30;46.30
4103;DHT22;2065;49.790;9.620;2022-08-19T09:47:56;28.40;46.70
4103;DHT22;2065;49.790;9.620;2022-08-19T09:50:23;28.30;45.80
4103;DHT22;2065;49.790;9.620;2022-08-19T09:52:51;28.20;46.00
4103;DHT22;2065;49.790;9.620;2022-08-19T09:55:19;28.30;46.20
4103;DHT22;2065;49.790;9.620;2022-08-19T09:57:46;28.40;46.10
4103;DHT22;2065;49.790;9.620;2022-08-19T10:00:15;28.20;46.50
4103;DHT22;2065;49.790;9.620;2022-08-19T10:02:42;28.20;46.90
4103;DHT22;2065;49.790;9.620;2022-08-19T10:05:09;28.20;47.10
4103;DHT22;2065;49.790;9.620;2022-08-19T10:07:53;28.20;47.40
4103;DHT22;2065;49.790;9.620;2022-08-19T10:10:20;28.30;47.50
4103;DHT22;2065;49.790;9.620;2022-08-19T10:12:47;28.40;47.50
4103;DHT22;2065;49.790;9.620;2022-08-19T10:15:16;28.50;47.50
4103;DHT22;2065;49.790;9.620;2022-08-19T10:17:46;28.30;47.80
4103;DHT22;2065;49.790;9.620;2022-08-19T10:20:13;28.40;47.90
4103;DHT22;2065;49.790;9.620;2022-08-19T10:22:40;28.40;47.30
4103;DHT22;2065;49.790;9.620;2022-08-19T10:25:09;28.50;47.50
4103;DHT22;2065;49.790;9.620;2022-08-19T10:27:36;28.50;47.40
4103;DHT22;2065;49.790;9.620;2022-08-19T10:30:05;28.60;47.30
4103;DHT22;2065;49.790;9.620;2022-08-19T10:32:33;28.60;47.20
4103;DHT22;2065;49.790;9.620;2022-08-19T10:35:01;28.80;46.70
4103;DHT22;2065;49.790;9.620;2022-08-19T10:37:31;28.80;46.70
4103;DHT22;2065;49.790;9.620;2022-08-19T10:39:58;28.70;45.60
4103;DHT22;2065;49.790;9.620;2022-08-19T10:42:25;28.60;46.00
4103;DHT22;2065;49.790;9.620;2022-08-19T10:44:52;28.50;46.30
4103;DHT22;2065;49.790;9.620;2022-08-19T10:47:19;28.50;46.10
4103;DHT22;2065;49.790;9.620;2022-08-19T10:49:50;28.60;46.10
4103;DHT22;2065;49.790;9.620;2022-08-19T10:52:34;28.80;45.90
4103;DHT22;2065;49.790;9.620;2022-08-19T10:55:03;28.60;45.10
4103;DHT22;2065;49.790;9.620;2022-08-19T10:57:48;28.60;45.40
4103;DHT22;2065;49.790;9.620;2022-08-19T11:00:16;28.70;45.30
4103;DHT22;2065;49.790;9.620;2022-08-19T11:02:43;28.90;45.30
4103;DHT22;2065;49.790;9.620;2022-08-19T11:05:13;29.00;45.10
4103;DHT22;2065;49.790;9.620;2022-08-19T11:07:40;29.00;44.30
4103;DHT22;2065;49.790;9.620;2022-08-19T11:10:12;29.00;45.10
4103;DHT22;2065;49.790;9.620;2022-08-19T11:12:40;29.00;44.20
4103;DHT22;2065;49.790;9.620;2022-08-19T11:15:08;29.10;44.50
4103;DHT22;2065;49.790;9.620;2022-08-19T11:17:36;29.10;44.00
4103;DHT22;2065;49.790;9.620;2022-08-19T11:20:07;29.10;44.10
4103;DHT22;2065;49.790;9.620;2022-08-19T11:22:36;28.90;44.00
4103;DHT22;2065;49.790;9.620;2022-08-19T11:25:04;29.00;44.10
4103;DHT22;2065;49.790;9.620;2022-08-19T11:27:31;28.90;44.40
4103;DHT22;2065;49.790;9.620;2022-08-19T11:29:58;29.00;44.20
4103;DHT22;2065;49.790;9.620;2022-08-19T11:32:25;29.20;43.30
4103;DHT22;2065;49.790;9.620;2022-08-19T11:34:52;29.40;43.20
4103;DHT22;2065;49.790;9.620;2022-08-19T11:37:20;29.50;42.70
4103;DHT22;2065;49.790;9.620;2022-08-19T11:39:48;29.40;42.50
4103;DHT22;2065;49.790;9.620;2022-08-19T11:42:17;29.50;42.00
4103;DHT22;2065;49.790;9.620;2022-08-19T11:45:01;29.50;41.50
4103;DHT22;2065;49.790;9.620;2022-08-19T11:47:31;29.60;41.80
4103;DHT22;2065;49.790;9.620;2022-08-19T11:49:58;29.60;41.60
4103;DHT22;2065;49.790;9.620;2022-08-19T11:52:25;29.60;42.00
4103;DHT22;2065;49.790;9.620;2022-08-19T11:54:54;29.80;41.80
4103;DHT22;2065;49.790;9.620;2022-08-19T11:57:21;29.90;41.10
4103;DHT22;2065;49.790;9.620;2022-08-19T11:59:49;30.00;40.60
4103;DHT22;2065;49.790;9.620;2022-08-19T12:02:16;30.00;40.90
4103;DHT22;2065;49.790;9.620;2022-08-19T12:04:44;30.00;40.50
4103;DHT22;2065;49.790;9.620;2022-08-19T12:07:11;30.00;39.80
4103;DHT22;2065;49.790;9.620;2022-08-19T12:09:38;29.80;39.90
4103;DHT22;2065;49.790;9.620;2022-08-19T12:12:07;29.80;40.40
4103;DHT22;2065;49.790;9.620;2022-08-19T12:14:35;29.90;39.90
4103;DHT22;2065;49.790;9.620;2022-08-19T12:17:02;29.80;39.50
4103;DHT22;2065;49.790;9.620;2022-08-19T12:19:31;29.70;40.20
4103;DHT22;2065;49.790;9.620;2022-08-19T12:22:00;29.80;40.00
4103;DHT22;2065;49.790;9.620;2022-08-19T12:24:30;29.90;40.00
4103;DHT22;2065;49.790;9.620;2022-08-19T12:26:58;30.20;40.30
4103;DHT22;2065;49.790;9.620;2022-08-19T12:29:29;30.30;39.20
4103;DHT22;2065;49.790;9.620;2022-08-19T12:31:57;30.30;38.70
4103;DHT22;2065;49.790;9.620;2022-08-19T12:34:27;30.30;39.00
4103;DHT22;2065;49.790;9.620;2022-08-19T12:36:57;30.20;39.50
4103;DHT22;2065;49.790;9.620;2022-08-19T12:39:24;30.20;39.20
4103;DHT22;2065;49.790;9.620;2022-08-19T12:41:52;30.30;39.00
4103;DHT22;2065;49.790;9.620;2022-08-19T12:44:19;30.40;39.00
4103;DHT22;2065;49.790;9.620;2022-08-19T12:46:48;30.60;39.00
4103;DHT22;2065;49.790;9.620;2022-08-19T12:49:15;30.60;38.40
4103;DHT22;2065;49.790;9.620;2022-08-19T12:51:42;30.80;37.80
4103;DHT22;2065;49.790;9.620;2022-08-19T12:54:09;30.80;37.70
4103;DHT22;2065;49.790;9.620;2022-08-19T12:56:37;30.80;36.90
4103;DHT22;2065;49.790;9.620;2022-08-19T12:59:04;30.90;37.10
4103;DHT22;2065;49.790;9.620;2022-08-19T13:01:33;30.80;37.40
4103;DHT22;2065;49.790;9.620;2022-08-19T13:04:02;30.70;37.60
4103;DHT22;2065;49.790;9.620;2022-08-19T13:06:29;30.40;37.50
4103;DHT22;2065;49.790;9.620;2022-08-19T13:08:56;30.40;38.10
4103;DHT22;2065;49.790;9.620;2022-08-19T13:11:23;30.50;38.20
4103;DHT22;2065;49.790;9.620;2022-08-19T13:13:52;30.70;38.30
4103;DHT22;2065;49.790;9.620;2022-08-19T13:16:20;30.80;38.20
4103;DHT22;2065;49.790;9.620;2022-08-19T13:18:48;30.80;37.40
4103;DHT22;2065;49.790;9.620;2022-08-19T13:21:19;30.90;37.30
4103;DHT22;2065;49.790;9.620;2022-08-19T13:23:47;31.10;37.50
4103;DHT22;2065;49.790;9.620;2022-08-19T13:26:15;31.50;36.80
4103;DHT22;2065;49.790;9.620;2022-08-19T13:28:43;31.70;36.00
4103;DHT22;2065;49.790;9.620;2022-08-19T13:31:30;31.90;35.40
4103;DHT22;2065;49.790;9.620;2022-08-19T13:34:16;31.90;35.50
4103;DHT22;2065;49.790;9.620;2022-08-19T13:36:46;31.90;36.40
4103;DHT22;2065;49.790;9.620;2022-08-19T13:39:13;32.00;35.40
4103;DHT22;2065;49.790;9.620;2022-08-19T13:41:44;31.90;35.20
4103;DHT22;2065;49.790;9.620;2022-08-19T13:44:13;32.00;35.30
4103;DHT22;2065;49.790;9.620;2022-08-19T13:46:47;32.00;34.70
4103;DHT22;2065;49.790;9.620;2022-08-19T13:49:22;32.30;34.90
4103;DHT22;2065;49.790;9.620;2022-08-19T13:52:03;32.40;33.80
4103;DHT22;2065;49.790;9.620;2022-08-19T13:54:34;32.70;33.90
4103;DHT22;2065;49.790;9.620;2022-08-19T13:57:03;32.80;34.20
4103;DHT22;2065;49.790;9.620;2022-08-19T13:59:30;33.20;33.30
4103;DHT22;2065;49.790;9.620;2022-08-19T14:01:58;33.30;32.70
4103;DHT22;2065;49.790;9.620;2022-08-19T14:04:26;33.40;32.90
4103;DHT22;2065;49.790;9.620;2022-08-19T14:06:54;33.30;33.10
4103;DHT22;2065;49.790;9.620;2022-08-19T14:09:22;33.20;33.20
4103;DHT22;2065;49.790;9.620;2022-08-19T14:11:49;33.00;33.30
4103;DHT22;2065;49.790;9.620;2022-08-19T14:14:16;32.80;33.80
4103;DHT22;2065;49.790;9.620;2022-08-19T14:16:43;32.60;34.30
4103;DHT22;2065;49.790;9.620;2022-08-19T14:19:11;32.40;34.60
4103;DHT22;2065;49.790;9.620;2022-08-19T14:21:38;32.40;34.80
4103;DHT22;2065;49.790;9.620;2022-08-19T14:24:06;32.50;35.30
4103;DHT22;2065;49.790;9.620;2022-08-19T14:26:35;32.20;34.60
4103;DHT22;2065;49.790;9.620;2022-08-19T14:29:02;32.00;34.80
4103;DHT22;2065;49.790;9.620;2022-08-19T14:31:29;31.80;34.70
4103;DHT22;2065;49.790;9.620;2022-08-19T14:33:56;31.60;35.30
4103;DHT22;2065;49.790;9.620;2022-08-19T14:36:23;31.60;35.50
4103;DHT22;2065;49.790;9.620;2022-08-19T14:38:50;31.50;35.30
4103;DHT22;2065;49.790;9.620;2022-08-19T14:41:19;31.50;35.60
4103;DHT22;2065;49.790;9.620;2022-08-19T14:43:50;31.60;35.70
4103;DHT22;2065;49.790;9.620;2022-08-19T14:46:19;31.60;35.50
4103;DHT22;2065;49.790;9.620;2022-08-19T14:48:48;31.60;35.40
4103;DHT22;2065;49.790;9.620;2022-08-19T14:51:15;31.60;35.60
4103;DHT22;2065;49.790;9.620;2022-08-19T14:53:42;31.60;35.40
4103;DHT22;2065;49.790;9.620;2022-08-19T14:56:11;31.70;35.50
4103;DHT22;2065;49.790;9.620;2022-08-19T14:58:38;31.70;35.40
4103;DHT22;2065;49.790;9.620;2022-08-19T15:01:08;31.70;35.60
4103;DHT22;2065;49.790;9.620;2022-08-19T15:03:35;31.80;35.50
4103;DHT22;2065;49.790;9.620;2022-08-19T15:06:04;31.80;34.80
4103;DHT22;2065;49.790;9.620;2022-08-19T15:08:33;31.70;35.30
4103;DHT22;2065;49.790;9.620;2022-08-19T15:11:02;31.70;35.30
4103;DHT22;2065;49.790;9.620;2022-08-19T15:13:35;31.60;35.00
4103;DHT22;2065;49.790;9.620;2022-08-19T15:16:02;31.50;35.60
4103;DHT22;2065;49.790;9.620;2022-08-19T15:18:31;31.40;36.00
4103;DHT22;2065;49.790;9.620;2022-08-19T15:20:58;31.20;35.40
4103;DHT22;2065;49.790;9.620;2022-08-19T15:23:25;31.10;35.90
4103;DHT22;2065;49.790;9.620;2022-08-19T15:25:52;31.20;36.00
4103;DHT22;2065;49.790;9.620;2022-08-19T15:28:21;31.20;36.70
4103;DHT22;2065;49.790;9.620;2022-08-19T15:30:48;31.30;36.30
4103;DHT22;2065;49.790;9.620;2022-08-19T15:33:15;31.30;36.40
4103;DHT22;2065;49.790;9.620;2022-08-19T15:35:47;31.30;35.80
4103;DHT22;2065;49.790;9.620;2022-08-19T15:38:17;31.00;35.60
4103;DHT22;2065;49.790;9.620;2022-08-19T15:40:47;31.00;36.20
4103;DHT22;2065;49.790;9.620;2022-08-19T15:43:16;31.00;36.10
4103;DHT22;2065;49.790;9.620;2022-08-19T15:45:44;31.10;35.80
4103;DHT22;2065;49.790;9.620;2022-08-19T15:48:11;31.10;35.80
4103;DHT22;2065;49.790;9.620;2022-08-19T15:50:38;31.00;35.50
4103;DHT22;2065;49.790;9.620;2022-08-19T15:53:09;31.00;35.90
4103;DHT22;2065;49.790;9.620;2022-08-19T15:55:42;31.10;36.10
4103;DHT22;2065;49.790;9.620;2022-08-19T15:58:12;31.10;35.80
4103;DHT22;2065;49.790;9.620;2022-08-19T16:00:57;31.10;35.60
4103;DHT22;2065;49.790;9.620;2022-08-19T16:03:42;31.10;36.00
4103;DHT22;2065;49.790;9.620;2022-08-19T16:06:27;31.20;35.90
4103;DHT22;2065;49.790;9.620;2022-08-19T16:08:59;31.20;35.80
4103;DHT22;2065;49.790;9.620;2022-08-19T16:11:29;31.30;35.70
4103;DHT22;2065;49.790;9.620;2022-08-19T16:13:58;31.30;35.60